createdAt,value
2022-11-07T00:01:14.234Z,39.45
2022-11-07T00:04:16.600Z,38.97
2022-11-07T00:07:18.589Z,40.47
2022-11-07T00:10:20.556Z,40.25
2022-11-07T00:13:22.504Z,43.42
2022-11-07T00:16:26.655Z,40.60
2022-11-07T00:19:28.638Z,40.53
2022-11-07T00:22:30.587Z,37.80
2022-11-07T00:25:32.536Z,41.83
2022-11-07T00:28:38.775Z,38.55
2022-11-07T00:31:40.784Z,37.55
2022-11-07T00:34:42.759Z,40.58
2022-11-07T00:37:44.706Z,41.20
2022-11-07T00:40:59.891Z,42.67
2022-11-07T00:44:01.902Z,42.90
2022-11-07T00:47:03.938Z,44.97
2022-11-07T00:50:06.259Z,47.50
2022-11-07T00:53:08.244Z,45.60
2022-11-07T00:56:11.854Z,42.70
2022-11-07T00:59:13.929Z,42.13
2022-11-07T01:02:15.977Z,37.53
2022-11-07T01:05:18.088Z,40.75
2022-11-07T01:08:20.023Z,42.97
2022-11-07T01:11:22.478Z,42.50
2022-11-07T01:14:25.811Z,41.53
2022-11-07T01:17:27.761Z,41.93
2022-11-07T01:20:29.742Z,44.03
2022-11-07T01:23:31.684Z,33.17
2022-11-07T01:26:33.654Z,34.53
2022-11-07T01:29:35.638Z,33.17
2022-11-07T01:32:37.593Z,34.13
2022-11-07T01:35:40.009Z,32.03
2022-11-07T01:38:43.835Z,34.72
2022-11-07T01:41:45.771Z,37.92
2022-11-07T01:44:52.444Z,37.20
2022-11-07T01:47:55.948Z,33.93
2022-11-07T01:50:57.908Z,33.85
2022-11-07T01:54:00.322Z,30.52
2022-11-07T01:57:05.968Z,26.87
2022-11-07T02:00:11.223Z,30.23
2022-11-07T02:03:15.474Z,27.77
2022-11-07T02:06:34.072Z,26.63
2022-11-07T02:09:36.224Z,23.42
2022-11-07T02:12:38.442Z,27.58
2022-11-07T02:15:40.522Z,22.95
2022-11-07T02:18:43.523Z,24.33
2022-11-07T02:21:59.192Z,25.30
2022-11-07T02:25:03.212Z,25.10
2022-11-07T02:28:07.308Z,26.20
2022-11-07T02:31:09.286Z,23.75
2022-11-07T02:34:11.209Z,25.95
2022-11-07T02:37:17.876Z,26.95
2022-11-07T02:40:20.111Z,24.17
2022-11-07T02:43:24.642Z,24.10
2022-11-07T02:46:27.572Z,24.60
2022-11-07T02:49:29.791Z,24.20
2022-11-07T02:52:31.774Z,22.67
2022-11-07T02:55:33.804Z,20.52
2022-11-07T02:58:35.796Z,21.03
2022-11-07T03:01:37.814Z,21.23
2022-11-07T03:04:40.697Z,21.63
2022-11-07T03:07:45.770Z,22.20
2022-11-07T03:10:47.751Z,23.40
2022-11-07T03:13:50.359Z,24.05
2022-11-07T03:16:52.345Z,26.27
2022-11-07T03:19:54.318Z,25.47
2022-11-07T03:22:56.265Z,27.27
2022-11-07T03:25:58.234Z,27.40
2022-11-07T03:29:00.245Z,29.40
2022-11-07T03:32:02.391Z,30.50
2022-11-07T03:35:04.628Z,32.05
2022-11-07T03:38:06.598Z,30.25
2022-11-07T03:41:08.589Z,29.77
2022-11-07T03:44:10.545Z,29.85
2022-11-07T03:47:12.477Z,27.50
2022-11-07T03:50:19.407Z,28.70
2022-11-07T03:53:25.504Z,28.42
2022-11-07T03:56:28.279Z,26.50
2022-11-07T03:59:30.271Z,29.37
2022-11-07T04:02:32.269Z,27.95
2022-11-07T04:05:34.343Z,29.38
2022-11-07T04:08:36.506Z,29.67
2022-11-07T04:11:56.800Z,30.23
2022-11-07T04:15:17.004Z,29.88
2022-11-07T04:18:18.959Z,30.70
2022-11-07T04:21:21.089Z,30.47
2022-11-07T04:24:23.041Z,29.85
2022-11-07T04:27:43.159Z,32.58
2022-11-07T04:30:45.099Z,32.07
2022-11-07T04:33:47.064Z,30.42
2022-11-07T04:36:48.996Z,29.67
2022-11-07T04:39:50.945Z,30.55
2022-11-07T04:42:52.927Z,30.05
2022-11-07T04:45:54.988Z,29.67
2022-11-07T04:48:56.928Z,31.92
2022-11-07T04:51:58.951Z,31.17
2022-11-07T04:55:00.906Z,34.08
2022-11-07T04:58:02.864Z,28.05
2022-11-07T05:01:04.955Z,27.47
2022-11-07T05:04:06.900Z,25.52
2022-11-07T05:07:09.413Z,27.63
2022-11-07T05:10:22.733Z,27.48
2022-11-07T05:13:24.698Z,25.98
2022-11-07T05:16:27.272Z,30.33
2022-11-07T05:19:29.235Z,37.05
2022-11-07T05:22:55.128Z,35.20
2022-11-07T05:25:58.247Z,34.10
2022-11-07T05:29:00.184Z,27.83
2022-11-07T05:32:02.156Z,25.53
2022-11-07T05:35:05.418Z,24.27
2022-11-07T05:38:07.705Z,24.30
2022-11-07T05:41:09.916Z,21.55
2022-11-07T05:44:11.934Z,20.38
2022-11-07T05:47:13.908Z,21.08
2022-11-07T05:50:15.872Z,19.15
2022-11-07T05:53:18.372Z,18.53
2022-11-07T05:56:20.512Z,20.98
2022-11-07T05:59:22.540Z,21.27
2022-11-07T06:02:24.615Z,22.50
2022-11-07T06:05:26.987Z,22.88
2022-11-07T06:08:28.976Z,24.80
2022-11-07T06:11:31.612Z,27.27
2022-11-07T06:14:33.676Z,22.88
2022-11-07T06:17:35.662Z,22.73
2022-11-07T06:20:37.977Z,24.45
2022-11-07T06:23:39.958Z,25.90
2022-11-07T06:26:43.116Z,33.67
2022-11-07T06:29:45.227Z,38.67
2022-11-07T06:32:47.178Z,59.15
2022-11-07T06:35:49.175Z,51.03
2022-11-07T06:38:52.724Z,38.10
2022-11-07T06:41:54.849Z,34.95
2022-11-07T06:44:56.794Z,29.33
2022-11-07T06:47:58.831Z,29.67
2022-11-07T06:51:01.742Z,28.23
2022-11-07T06:54:04.390Z,27.53
2022-11-07T06:57:06.369Z,25.80
2022-11-07T07:00:09.056Z,30.63
2022-11-07T07:03:12.346Z,28.55
2022-11-07T07:06:15.727Z,27.00
2022-11-07T07:09:18.102Z,27.40
2022-11-07T07:12:20.295Z,23.67
2022-11-07T07:15:22.687Z,23.43
2022-11-07T07:18:25.859Z,21.50
2022-11-07T07:21:27.953Z,20.08
2022-11-07T07:24:30.108Z,20.83
2022-11-07T07:27:32.295Z,20.48
2022-11-07T07:30:34.362Z,21.00
2022-11-07T07:33:36.734Z,20.40
2022-11-07T07:36:38.834Z,18.25
2022-11-07T07:39:40.895Z,18.90
2022-11-07T07:42:44.028Z,16.67
2022-11-07T07:45:46.377Z,16.77
2022-11-07T07:48:48.773Z,16.75
2022-11-07T07:51:51.105Z,15.65
2022-11-07T07:54:53.341Z,17.88
2022-11-07T07:57:55.394Z,18.00
2022-11-07T08:01:00.206Z,20.23
2022-11-07T08:04:03.026Z,19.42
2022-11-07T08:07:05.292Z,17.40
2022-11-07T08:10:34.921Z,17.70
2022-11-07T08:13:30.110Z,19.48
2022-11-07T08:16:32.156Z,22.25
2022-11-07T08:19:34.147Z,23.77
2022-11-07T08:22:39.098Z,22.25
2022-11-07T08:25:41.581Z,21.35
2022-11-07T08:28:46.471Z,22.73
2022-11-07T08:31:50.751Z,21.83
2022-11-07T08:34:52.815Z,22.75
2022-11-07T08:37:55.110Z,21.25
2022-11-07T08:41:00.314Z,21.87
2022-11-07T08:44:02.614Z,22.90
2022-11-07T08:47:08.452Z,21.20
2022-11-07T08:50:11.053Z,18.88
2022-11-07T08:53:13.261Z,18.80
2022-11-07T08:56:15.398Z,16.80
2022-11-07T08:59:17.699Z,19.58
2022-11-07T09:05:41.919Z,18.13
2022-11-07T09:08:44.131Z,19.17
2022-11-07T09:11:46.157Z,18.27
2022-11-07T09:14:48.427Z,18.60
2022-11-07T09:17:51.150Z,18.93
2022-11-07T09:20:53.723Z,20.35
2022-11-07T09:23:55.756Z,20.52
2022-11-07T09:26:57.729Z,22.33
2022-11-07T09:30:00.319Z,21.63
2022-11-07T09:33:02.548Z,18.92
2022-11-07T09:36:05.366Z,17.90
2022-11-07T09:39:09.999Z,17.03
2022-11-07T09:42:19.203Z,17.17
2022-11-07T09:45:21.565Z,16.67
2022-11-07T09:48:25.713Z,15.80
2022-11-07T09:51:31.296Z,16.05
2022-11-07T09:54:34.800Z,16.17
2022-11-07T09:57:37.822Z,17.08
2022-11-07T10:00:40.215Z,16.40
2022-11-07T10:03:52.906Z,16.38
2022-11-07T10:07:06.525Z,16.90
2022-11-07T10:10:15.856Z,15.97
2022-11-07T10:13:21.074Z,16.75
2022-11-07T10:16:38.149Z,16.67
2022-11-07T10:19:59.175Z,15.68
2022-11-07T10:23:07.173Z,16.23
2022-11-07T10:26:12.638Z,15.07
2022-11-07T10:29:19.422Z,15.40
2022-11-07T10:32:27.330Z,16.75
2022-11-07T10:35:29.435Z,15.97
2022-11-07T10:38:33.957Z,15.95
2022-11-07T10:41:36.705Z,16.80
2022-11-07T10:44:40.676Z,16.10
2022-11-07T10:47:43.960Z,15.37
2022-11-07T10:50:53.266Z,16.33
2022-11-07T10:53:55.289Z,16.08
2022-11-07T10:57:11.704Z,17.92
2022-11-07T11:00:23.458Z,15.83
2022-11-07T11:03:41.885Z,15.80
2022-11-07T11:06:45.562Z,15.65
2022-11-07T11:09:54.548Z,16.10
2022-11-07T11:12:56.601Z,14.30
2022-11-07T11:16:05.293Z,13.77
2022-11-07T11:19:17.838Z,14.55
2022-11-07T11:22:21.546Z,14.50
2022-11-07T11:25:24.152Z,13.02
2022-11-07T11:28:38.439Z,12.83
2022-11-07T11:31:45.303Z,13.40
2022-11-07T11:34:57.143Z,15.23
2022-11-07T11:38:02.977Z,14.65
2022-11-07T11:41:11.153Z,12.90
2022-11-07T11:44:16.713Z,14.82
2022-11-07T11:47:27.051Z,13.18
2022-11-07T11:51:00.520Z,13.48
2022-11-07T11:54:02.651Z,14.03
2022-11-07T11:57:07.263Z,14.02
2022-11-07T12:00:15.668Z,14.48
2022-11-07T12:03:20.562Z,14.75
2022-11-07T12:06:32.235Z,14.23
2022-11-07T12:10:09.748Z,13.88
2022-11-07T12:13:16.368Z,15.40
2022-11-07T12:16:38.548Z,14.60
2022-11-07T12:19:59.135Z,13.70
2022-11-07T12:23:20.012Z,14.70
2022-11-07T12:26:33.212Z,14.82
2022-11-07T12:29:53.776Z,13.13
2022-11-07T12:32:55.853Z,12.73
2022-11-07T12:36:02.721Z,14.38
2022-11-07T12:39:16.980Z,14.43
2022-11-07T12:42:41.080Z,13.03
2022-11-07T12:45:52.363Z,13.00
2022-11-07T12:48:57.286Z,15.88
2022-11-07T12:52:05.191Z,14.80
2022-11-07T12:55:16.204Z,13.27
2022-11-07T12:58:22.166Z,13.57
2022-11-07T13:01:26.813Z,12.88
2022-11-07T13:04:39.355Z,12.13
2022-11-07T13:07:45.703Z,12.50
2022-11-07T13:10:47.811Z,11.05
2022-11-07T13:14:13.107Z,12.25
2022-11-07T13:17:20.328Z,13.55
2022-11-07T13:20:30.275Z,13.80
2022-11-07T13:23:32.518Z,14.82
2022-11-07T13:26:46.863Z,13.55
2022-11-07T13:29:49.705Z,12.45
2022-11-07T13:32:51.721Z,14.38
2022-11-07T13:35:55.681Z,13.27
2022-11-07T13:38:58.684Z,15.35
2022-11-07T13:42:01.229Z,13.77
2022-11-07T13:45:09.019Z,14.43
2022-11-07T13:48:22.737Z,14.13
2022-11-07T13:51:29.143Z,14.38
2022-11-07T13:54:31.308Z,14.07
2022-11-07T13:57:44.910Z,17.70
2022-11-07T14:00:46.963Z,15.90
2022-11-07T14:03:49.217Z,16.35
2022-11-07T14:06:51.242Z,17.40
2022-11-07T14:09:57.157Z,18.10
2022-11-07T14:13:04.192Z,15.57
2022-11-07T14:16:22.883Z,14.52
2022-11-07T14:19:26.812Z,15.15
2022-11-07T14:22:28.943Z,14.57
2022-11-07T14:25:32.318Z,14.90
2022-11-07T14:28:35.917Z,15.00
2022-11-07T14:31:37.965Z,14.07
2022-11-07T14:34:44.415Z,12.40
2022-11-07T14:37:46.668Z,12.47
2022-11-07T14:40:49.997Z,12.53
2022-11-07T14:43:52.383Z,10.52
2022-11-07T14:46:55.430Z,11.20
2022-11-07T14:49:57.990Z,11.23
2022-11-07T14:53:03.233Z,12.67
2022-11-07T14:56:07.031Z,11.82
2022-11-07T14:59:11.673Z,13.27
2022-11-07T15:02:13.880Z,14.60
2022-11-07T15:05:22.178Z,15.27
2022-11-07T15:08:28.673Z,14.60
2022-11-07T15:11:40.293Z,14.27
2022-11-07T15:14:42.248Z,18.58
2022-11-07T15:17:51.907Z,15.37
2022-11-07T15:20:58.723Z,16.27
2022-11-07T15:24:01.809Z,17.70
2022-11-07T15:27:05.712Z,16.50
2022-11-07T15:30:25.286Z,17.57
2022-11-07T15:33:30.639Z,18.83
2022-11-07T15:36:35.217Z,18.05
2022-11-07T15:39:40.664Z,18.70
2022-11-07T15:42:42.849Z,19.90
2022-11-07T15:45:45.582Z,20.13
2022-11-07T15:48:47.675Z,21.35
2022-11-07T15:51:49.651Z,19.27
2022-11-07T15:54:51.612Z,18.20
2022-11-07T15:57:54.229Z,19.33
2022-11-07T16:00:56.764Z,19.83
2022-11-07T16:03:58.762Z,22.27
2022-11-07T16:07:00.771Z,29.25
2022-11-07T16:10:04.171Z,30.00
2022-11-07T16:13:08.674Z,25.23
2022-11-07T16:16:16.214Z,31.37
2022-11-07T16:19:19.661Z,45.25
2022-11-07T16:22:21.628Z,36.42
2022-11-07T16:25:24.341Z,33.65
2022-11-07T16:28:30.997Z,35.00
2022-11-07T16:31:32.983Z,35.03
2022-11-07T16:34:34.975Z,39.97
2022-11-07T16:37:37.095Z,38.70
2022-11-07T16:40:39.135Z,40.73
2022-11-07T16:43:41.257Z,43.50
2022-11-07T16:46:43.292Z,41.33
2022-11-07T16:49:45.287Z,44.67
2022-11-07T16:52:47.240Z,44.27
2022-11-07T16:55:53.565Z,46.40
2022-11-07T16:58:56.202Z,45.67
2022-11-07T17:01:58.321Z,43.83
2022-11-07T17:05:00.346Z,46.45
2022-11-07T17:08:03.686Z,59.10
2022-11-07T17:11:05.708Z,84.00
2022-11-07T17:14:07.760Z,81.33
2022-11-07T17:17:12.187Z,97.80
2022-11-07T17:20:41.112Z,93.28
2022-11-07T17:23:42.087Z,65.82
2022-11-07T17:26:44.063Z,69.80
2022-11-07T17:29:46.020Z,64.95
2022-11-07T17:32:47.981Z,49.28
2022-11-07T17:35:51.558Z,51.00
2022-11-07T17:38:53.909Z,48.15
2022-11-07T17:41:55.940Z,43.83
2022-11-07T17:44:57.948Z,46.93
2022-11-07T17:47:59.892Z,46.58
2022-11-07T17:51:01.859Z,45.55
2022-11-07T17:54:04.355Z,55.10
2022-11-07T17:57:08.972Z,51.53
2022-11-07T18:00:14.516Z,46.55
2022-11-07T18:03:16.477Z,49.03
2022-11-07T18:06:18.636Z,47.30
2022-11-07T18:09:20.554Z,52.40
2022-11-07T18:12:22.573Z,47.72
2022-11-07T18:15:24.564Z,48.05
2022-11-07T18:18:27.132Z,45.63
2022-11-07T18:21:29.302Z,42.08
2022-11-07T18:24:31.277Z,44.70
2022-11-07T18:27:33.579Z,43.37
2022-11-07T18:30:36.641Z,45.00
2022-11-07T18:33:38.682Z,45.38
2022-11-07T18:36:41.341Z,46.30
2022-11-07T18:39:43.424Z,42.90
2022-11-07T18:42:45.740Z,44.15
2022-11-07T18:45:48.542Z,41.20
2022-11-07T18:48:53.420Z,37.90
2022-11-07T18:51:55.518Z,37.90
2022-11-07T18:54:57.577Z,38.78
2022-11-07T18:57:59.534Z,39.37
2022-11-07T19:01:02.285Z,47.53
2022-11-07T19:04:05.901Z,42.60
2022-11-07T19:07:07.935Z,45.25
2022-11-07T19:10:10.090Z,47.25
2022-11-07T19:13:12.035Z,47.35
2022-11-07T19:16:15.746Z,41.78
2022-11-07T19:19:17.706Z,40.57
2022-11-07T19:22:19.813Z,42.47
2022-11-07T19:25:21.748Z,43.70
2022-11-07T19:28:23.718Z,39.50
2022-11-07T19:31:27.612Z,38.38
2022-11-07T19:34:33.198Z,43.78
2022-11-07T19:37:35.187Z,43.28
2022-11-07T19:40:37.223Z,44.93
2022-11-07T19:43:39.756Z,42.90
2022-11-07T19:46:41.838Z,36.85
2022-11-07T19:49:43.764Z,36.17
2022-11-07T19:52:45.833Z,35.85
2022-11-07T19:55:48.037Z,37.53
2022-11-07T19:58:49.974Z,36.67
2022-11-07T20:02:17.704Z,37.72
2022-11-07T20:05:14.536Z,51.40
2022-11-07T20:08:16.516Z,60.67
2022-11-07T20:11:22.945Z,65.37
2022-11-07T20:14:24.887Z,59.45
2022-11-07T20:17:26.867Z,55.65
2022-11-07T20:20:28.809Z,53.85
2022-11-07T20:23:30.869Z,48.72
2022-11-07T20:26:33.036Z,54.40
2022-11-07T20:29:34.960Z,51.55
2022-11-07T20:32:37.063Z,43.40
2022-11-07T20:35:39.030Z,45.15
2022-11-07T20:38:41.403Z,42.15
2022-11-07T20:41:43.835Z,46.80
2022-11-07T20:44:45.780Z,47.00
2022-11-07T20:47:47.778Z,51.22
2022-11-07T20:50:49.845Z,47.60
2022-11-07T20:53:52.033Z,43.38
2022-11-07T20:56:53.971Z,47.25
2022-11-07T20:59:55.942Z,46.38
2022-11-07T21:02:57.921Z,43.67
2022-11-07T21:06:00.119Z,41.10
2022-11-07T21:09:02.419Z,43.03
2022-11-07T21:12:04.387Z,41.20
2022-11-07T21:15:07.015Z,40.50
2022-11-07T21:18:09.600Z,40.53
2022-11-07T21:21:12.848Z,42.90
2022-11-07T21:24:14.828Z,41.08
2022-11-07T21:27:16.796Z,37.25
2022-11-07T21:30:18.981Z,36.95
2022-11-07T21:33:20.973Z,31.10
2022-11-07T21:36:24.419Z,32.55
2022-11-07T21:39:26.468Z,34.95
2022-11-07T21:42:28.449Z,38.13
2022-11-07T21:45:30.399Z,36.40
2022-11-07T21:48:32.356Z,34.08
2022-11-07T21:51:35.008Z,32.58
2022-11-07T21:54:36.976Z,34.35
2022-11-07T21:57:39.357Z,35.17
2022-11-07T22:00:41.476Z,35.63
2022-11-07T22:04:05.165Z,34.53
2022-11-07T22:07:05.455Z,33.72
2022-11-07T22:10:07.536Z,30.95
2022-11-07T22:13:09.520Z,30.17
2022-11-07T22:16:13.662Z,31.40
2022-11-07T22:19:16.434Z,34.30
2022-11-07T22:22:18.387Z,31.80
2022-11-07T22:25:20.368Z,29.77
2022-11-07T22:28:22.344Z,28.85
2022-11-07T22:31:30.215Z,26.77
2022-11-07T22:34:32.324Z,30.43
2022-11-07T22:37:34.314Z,28.80
2022-11-07T22:40:36.253Z,31.13
2022-11-07T22:43:38.430Z,32.87
2022-11-07T22:46:40.416Z,32.50
2022-11-07T22:49:42.528Z,33.45
2022-11-07T22:52:44.511Z,31.65
2022-11-07T22:55:46.451Z,31.02
2022-11-07T22:58:48.695Z,31.88
2022-11-07T23:01:50.929Z,32.03
2022-11-07T23:04:52.946Z,33.07
2022-11-07T23:07:54.961Z,31.02
2022-11-07T23:11:44.106Z,32.50
2022-11-07T23:14:29.778Z,32.40
2022-11-07T23:17:31.818Z,30.08
2022-11-07T23:20:52.271Z,30.45
2022-11-07T23:23:54.959Z,28.98
2022-11-07T23:26:57.620Z,30.13
2022-11-07T23:29:59.565Z,30.30
2022-11-07T23:33:01.485Z,28.88
2022-11-07T23:36:04.728Z,30.40
2022-11-07T23:39:07.439Z,33.13
2022-11-07T23:42:10.097Z,32.53
2022-11-07T23:45:30.491Z,30.73
2022-11-07T23:48:51.048Z,30.77
2022-11-07T23:51:52.995Z,29.17
2022-11-07T23:55:13.654Z,32.22
2022-11-07T23:58:34.377Z,29.60
